Time;durP1;ratioP1;P1;durP2;ratioP2;P2;SDS_P1;SDS_P2;PMS_P1;PMS_P2;Temp;Humidity;BMP_temperature;BMP_pressure;BME280_temperature;BME280_humidity;BME280_pressure;Samples;Min_cycle;Max_cycle;Signal;HPM_P1;HPM_P2
2022/11/04 00:01:15;;;;;;;;;;;14.50;61.40;;;;;;5021919;28;88014;-37
2022/11/04 00:03:41;;;;;;;;;;;14.50;61.40;;;;;;5022713;28;88400;-37
2022/11/04 00:06:07;;;;;;;;;;;14.50;61.30;;;;;;5022377;28;88198;-37
2022/11/04 00:08:32;;;;;;;;;;;14.50;61.40;;;;;;5025702;28;87151;-37
2022/11/04 00:13:43;;;;;;;;;;;14.50;61.30;;;;;;5022540;28;87815;-37
2022/11/04 00:18:53;;;;;;;;;;;14.50;61.40;;;;;;5022806;28;86689;-37
2022/11/04 00:29:31;;;;;;;;;;;14.40;61.20;;;;;;5022088;28;86981;-37
2022/11/04 00:34:41;;;;;;;;;;;14.40;61.20;;;;;;5021950;28;87053;-37
2022/11/04 00:37:06;;;;;;;;;;;14.40;61.30;;;;;;5024016;28;87601;-37
2022/11/04 00:39:31;;;;;;;;;;;14.40;61.30;;;;;;5025136;28;88179;-37
2022/11/04 00:41:57;;;;;;;;;;;14.40;61.30;;;;;;5025917;28;86932;-37
2022/11/04 00:44:23;;;;;;;;;;;14.40;61.20;;;;;;5025711;28;88881;-37
2022/11/04 00:46:48;;;;;;;;;;;14.40;61.20;;;;;;5025354;28;88087;-37
2022/11/04 00:49:14;;;;;;;;;;;14.30;61.20;;;;;;5025664;28;87366;-37
2022/11/04 00:51:39;;;;;;;;;;;14.30;61.20;;;;;;5027621;28;87939;-37
2022/11/04 00:54:05;;;;;;;;;;;14.30;61.20;;;;;;5025521;28;87093;-37
2022/11/04 00:56:30;;;;;;;;;;;14.40;61.30;;;;;;5025392;28;88918;-37
2022/11/04 00:58:58;;;;;;;;;;;14.30;61.20;;;;;;5024898;28;88174;-37
2022/11/04 01:01:23;;;;;;;;;;;14.30;61.20;;;;;;5025726;28;87569;-37
2022/11/04 01:03:50;;;;;;;;;;;14.30;61.20;;;;;;5025430;28;87144;-37
2022/11/04 01:06:16;;;;;;;;;;;14.30;61.80;;;;;;5025007;28;88040;-37
2022/11/04 01:08:41;;;;;;;;;;;14.30;61.20;;;;;;5025937;28;86727;-37
2022/11/04 01:11:08;;;;;;;;;;;14.30;61.20;;;;;;5025319;28;88065;-37
2022/11/04 01:13:33;;;;;;;;;;;14.30;61.20;;;;;;5027583;28;88186;-37
2022/11/04 01:16:00;;;;;;;;;;;14.20;61.10;;;;;;5024710;28;88240;-37
2022/11/04 01:18:25;;;;;;;;;;;14.20;61.10;;;;;;5024984;28;88079;-37
2022/11/04 01:20:51;;;;;;;;;;;14.20;61.10;;;;;;5025149;28;87253;-37
2022/11/04 01:23:16;;;;;;;;;;;14.20;61.10;;;;;;5025255;28;87371;-37
2022/11/04 01:25:42;;;;;;;;;;;14.20;61.10;;;;;;5024748;28;88363;-37
2022/11/04 01:28:07;;;;;;;;;;;14.20;61.20;;;;;;5024830;28;87374;-37
2022/11/04 01:30:33;;;;;;;;;;;14.20;61.10;;;;;;5024800;28;88869;-37
2022/11/04 01:32:58;;;;;;;;;;;14.20;61.20;;;;;;5025069;28;87221;-37
2022/11/04 01:35:24;;;;;;;;;;;14.20;61.10;;;;;;5027796;28;87478;-37
2022/11/04 01:37:49;;;;;;;;;;;14.10;61.10;;;;;;5024535;28;87972;-37
2022/11/04 01:40:15;;;;;;;;;;;14.10;61.20;;;;;;5024043;28;88406;-37
2022/11/04 01:42:40;;;;;;;;;;;14.10;61.10;;;;;;5024727;28;88224;-37
2022/11/04 01:45:14;;;;;;;;;;;14.10;61.10;;;;;;5024507;28;88198;-37
2022/11/04 01:47:44;;;;;;;;;;;14.10;61.10;;;;;;5024177;28;87026;-37
2022/11/04 01:50:18;;;;;;;;;;;14.10;61.20;;;;;;5024537;28;87410;-37
2022/11/04 01:52:48;;;;;;;;;;;14.10;61.10;;;;;;5024117;28;89838;-37
2022/11/04 01:55:16;;;;;;;;;;;14.00;61.10;;;;;;5024329;28;86996;-37
2022/11/04 01:57:44;;;;;;;;;;;14.00;61.10;;;;;;5027435;28;88638;-37
2022/11/04 02:00:09;;;;;;;;;;;14.00;61.10;;;;;;5024337;28;87196;-37
2022/11/04 02:03:04;;;;;;;;;;;14.00;61.00;;;;;;5024613;28;87005;-37
2022/11/04 02:05:31;;;;;;;;;;;14.00;61.10;;;;;;5013641;28;89224;-37
2022/11/04 02:07:58;;;;;;;;;;;14.00;61.10;;;;;;5024273;28;87146;-37
2022/11/04 02:10:28;;;;;;;;;;;14.00;61.10;;;;;;5024160;28;88907;-37
2022/11/04 02:12:54;;;;;;;;;;;14.00;61.10;;;;;;5024043;28;88117;-37
2022/11/04 02:15:22;;;;;;;;;;;13.90;61.10;;;;;;5023957;28;87133;-37
2022/11/04 02:18:06;;;;;;;;;;;13.90;61.10;;;;;;5024071;28;87246;-37
2022/11/04 02:20:32;;;;;;;;;;;13.90;61.10;;;;;;5026535;28;88063;-37
2022/11/04 02:23:00;;;;;;;;;;;13.90;61.10;;;;;;5024857;28;87370;-37
2022/11/04 02:25:38;;;;;;;;;;;13.90;61.20;;;;;;5023813;28;88225;-37
2022/11/04 02:28:03;;;;;;;;;;;13.90;61.10;;;;;;5024305;28;87172;-37
2022/11/04 02:30:34;;;;;;;;;;;13.90;61.20;;;;;;5023573;28;88049;-37
2022/11/04 02:33:08;;;;;;;;;;;13.90;61.10;;;;;;5023494;28;88292;-37
2022/11/04 02:35:40;;;;;;;;;;;13.90;61.10;;;;;;5023582;28;87241;-37
2022/11/04 02:38:06;;;;;;;;;;;13.90;61.10;;;;;;5023809;28;87426;-37
2022/11/04 02:40:34;;;;;;;;;;;13.80;61.00;;;;;;5023561;28;88247;-37
2022/11/04 02:43:02;;;;;;;;;;;13.80;61.00;;;;;;5026970;28;87367;-37
2022/11/04 02:45:27;;;;;;;;;;;13.80;61.00;;;;;;5023138;28;88185;-37
2022/11/04 02:48:00;;;;;;;;;;;13.80;61.10;;;;;;5024343;28;86982;-37
2022/11/04 02:50:31;;;;;;;;;;;13.80;61.10;;;;;;5023737;28;86862;-37
2022/11/04 02:53:26;;;;;;;;;;;13.80;61.10;;;;;;5023226;28;87997;-37
2022/11/04 02:55:54;;;;;;;;;;;13.80;61.00;;;;;;5013527;28;87944;-37
2022/11/04 02:58:25;;;;;;;;;;;13.80;61.00;;;;;;5023079;28;89772;-37
2022/11/04 03:00:51;;;;;;;;;;;13.70;61.00;;;;;;5022624;28;88107;-37
2022/11/04 03:03:25;;;;;;;;;;;13.70;61.00;;;;;;5026554;28;87059;-37
2022/11/04 03:05:52;;;;;;;;;;;13.70;61.00;;;;;;5023266;28;87906;-37
2022/11/04 03:08:25;;;;;;;;;;;13.70;61.00;;;;;;5023510;28;87077;-37
2022/11/04 03:10:57;;;;;;;;;;;13.70;61.00;;;;;;5023382;28;88805;-37
2022/11/04 03:13:25;;;;;;;;;;;13.60;61.60;;;;;;5023472;28;87844;-37
2022/11/04 03:15:57;;;;;;;;;;;13.60;61.10;;;;;;5023150;28;87183;-37
2022/11/04 03:18:25;;;;;;;;;;;13.60;61.10;;;;;;5023496;28;87412;-37
2022/11/04 03:20:51;;;;;;;;;;;13.60;61.00;;;;;;5022351;28;89155;-37
2022/11/04 03:23:18;;;;;;;;;;;13.60;61.00;;;;;;5023119;28;87058;-37
2022/11/04 03:25:44;;;;;;;;;;;13.60;61.00;;;;;;5025592;28;88824;-37
2022/11/04 03:28:29;;;;;;;;;;;13.60;61.10;;;;;;5023064;28;87092;-37
2022/11/04 03:30:56;;;;;;;;;;;13.50;61.10;;;;;;5023151;28;87728;-37
2022/11/04 03:33:33;;;;;;;;;;;13.60;61.70;;;;;;5022553;28;89279;-36
2022/11/04 03:35:59;;;;;;;;;;;13.60;61.10;;;;;;5022882;28;87013;-37
2022/11/04 03:38:24;;;;;;;;;;;13.50;61.10;;;;;;5023474;28;87730;-37
2022/11/04 03:40:50;;;;;;;;;;;13.50;61.00;;;;;;5022850;28;88008;-37
2022/11/04 03:43:21;;;;;;;;;;;13.50;61.20;;;;;;5022926;28;87130;-37
2022/11/04 03:45:47;;;;;;;;;;;13.50;61.10;;;;;;5022178;28;88745;-37
2022/11/04 03:48:13;;;;;;;;;;;13.50;61.10;;;;;;5025498;28;88242;-37
2022/11/04 03:50:40;;;;;;;;;;;13.40;61.00;;;;;;5022985;28;87651;-37
2022/11/04 03:53:07;;;;;;;;;;;13.40;61.00;;;;;;5022440;28;88195;-37
2022/11/04 03:56:04;;;;;;;;;;;13.40;61.00;;;;;;5022823;28;87088;-37
2022/11/04 03:58:36;;;;;;;;;;;13.40;61.10;;;;;;4999173;28;86969;-37
2022/11/04 04:01:06;;;;;;;;;;;13.40;61.10;;;;;;5022282;28;88268;-37
2022/11/04 04:03:41;;;;;;;;;;;13.40;61.10;;;;;;5023300;28;86421;-37
2022/11/04 04:06:14;;;;;;;;;;;13.40;61.00;;;;;;5022734;28;86842;-37
2022/11/04 04:08:42;;;;;;;;;;;13.40;61.10;;;;;;5022079;28;88039;-37
2022/11/04 04:11:10;;;;;;;;;;;13.30;61.10;;;;;;5024554;28;88072;-37
2022/11/04 04:13:39;;;;;;;;;;;13.30;61.00;;;;;;5022274;28;87196;-37
2022/11/04 04:16:09;;;;;;;;;;;13.30;61.00;;;;;;5022473;28;87008;-37
2022/11/04 04:18:39;;;;;;;;;;;13.30;61.20;;;;;;5022440;28;87481;-43
2022/11/04 04:21:06;;;;;;;;;;;13.30;61.10;;;;;;5022140;28;88182;-37
2022/11/04 04:29:03;;;;;;;;;;;13.20;61.10;;;;;;5020955;28;86251;-36
2022/11/04 04:31:48;;;;;;;;;;;13.20;61.10;;;;;;5022249;28;87340;-37
2022/11/04 04:34:14;;;;;;;;;;;13.20;61.00;;;;;;5024801;28;87318;-37
2022/11/04 04:36:44;;;;;;;;;;;13.20;61.10;;;;;;5021412;28;87913;-37
2022/11/04 04:44:58;;;;;;;;;;;13.20;61.10;;;;;;5022362;28;87078;-37
2022/11/04 04:47:25;;;;;;;;;;;13.20;61.10;;;;;;5022298;28;87386;-36
2022/11/04 04:49:51;;;;;;;;;;;13.20;60.90;;;;;;5021723;28;87972;-37
2022/11/04 04:52:17;;;;;;;;;;;13.10;61.00;;;;;;5022048;28;87095;-37
2022/11/04 04:54:43;;;;;;;;;;;13.10;61.10;;;;;;5025061;28;87399;-37
2022/11/04 04:57:09;;;;;;;;;;;13.10;61.00;;;;;;5021580;28;87134;-37
2022/11/04 04:59:34;;;;;;;;;;;13.10;61.10;;;;;;5022026;28;87400;-37
2022/11/04 05:02:00;;;;;;;;;;;13.10;61.00;;;;;;5021112;28;89258;-36
2022/11/04 05:04:25;;;;;;;;;;;13.10;61.10;;;;;;5021707;28;87061;-36
2022/11/04 05:06:51;;;;;;;;;;;13.10;61.10;;;;;;5021901;28;87439;-37
2022/11/04 05:09:16;;;;;;;;;;;13.00;61.10;;;;;;5021460;28;88237;-37
2022/11/04 05:11:42;;;;;;;;;;;13.00;61.10;;;;;;5021719;28;87185;-36
2022/11/04 05:14:07;;;;;;;;;;;13.00;60.90;;;;;;5021511;28;87465;-37
2022/11/04 05:16:33;;;;;;;;;;;13.00;61.00;;;;;;5024184;28;87261;-37
2022/11/04 05:18:58;;;;;;;;;;;13.00;61.00;;;;;;5022270;28;87411;-37
2022/11/04 05:21:24;;;;;;;;;;;13.00;61.10;;;;;;5021419;28;88057;-36
2022/11/04 05:23:49;;;;;;;;;;;13.00;61.00;;;;;;5024302;28;86958;-37
2022/11/04 05:26:15;;;;;;;;;;;13.00;61.10;;;;;;5024506;28;87883;-36
2022/11/04 05:28:40;;;;;;;;;;;13.00;61.00;;;;;;5024710;28;87958;-36
2022/11/04 05:31:06;;;;;;;;;;;13.00;61.00;;;;;;5025193;28;87141;-36
2022/11/04 05:33:32;;;;;;;;;;;13.00;61.00;;;;;;5024838;28;87532;-37
2022/11/04 05:36:10;;;;;;;;;;;12.90;61.00;;;;;;5023833;28;89842;-36
2022/11/04 05:38:38;;;;;;;;;;;12.90;61.00;;;;;;5027341;28;86868;-36
2022/11/04 05:41:04;;;;;;;;;;;12.90;60.80;;;;;;5024177;28;89660;-36
2022/11/04 05:43:29;;;;;;;;;;;12.90;61.00;;;;;;5025565;28;86715;-36
2022/11/04 05:45:57;;;;;;;;;;;12.90;61.00;;;;;;5024944;28;87012;-36
2022/11/04 05:48:22;;;;;;;;;;;12.90;60.90;;;;;;5024342;28;88254;-37
2022/11/04 05:50:48;;;;;;;;;;;12.90;61.00;;;;;;5024138;28;87991;-37
2022/11/04 05:53:13;;;;;;;;;;;12.90;61.00;;;;;;5024788;28;88459;-36
2022/11/04 05:55:39;;;;;;;;;;;12.90;61.00;;;;;;5024036;28;88114;-36
2022/11/04 05:58:04;;;;;;;;;;;12.90;61.00;;;;;;5024753;28;87161;-37
2022/11/04 06:00:30;;;;;;;;;;;12.90;61.00;;;;;;5027445;28;87668;-37
2022/11/04 06:02:58;;;;;;;;;;;12.80;60.90;;;;;;5024771;28;87106;-37
2022/11/04 06:05:24;;;;;;;;;;;12.80;60.90;;;;;;5024404;28;87409;-37
2022/11/04 06:07:50;;;;;;;;;;;12.90;60.90;;;;;;5024551;28;87519;-37
2022/11/04 06:10:16;;;;;;;;;;;12.80;61.00;;;;;;5024424;28;87051;-37
2022/11/04 06:12:41;;;;;;;;;;;12.80;60.90;;;;;;5024517;28;86990;-37
2022/11/04 06:15:07;;;;;;;;;;;12.80;60.90;;;;;;5023466;28;88844;-37
2022/11/04 06:17:32;;;;;;;;;;;12.80;60.80;;;;;;5024367;28;87150;-37
2022/11/04 06:19:58;;;;;;;;;;;12.80;60.80;;;;;;5024358;28;86953;-37
2022/11/04 06:22:23;;;;;;;;;;;12.80;60.80;;;;;;5026752;28;88038;-37
2022/11/04 06:24:49;;;;;;;;;;;12.80;60.80;;;;;;5024212;28;87614;-37
2022/11/04 06:27:14;;;;;;;;;;;12.80;60.80;;;;;;5023860;28;87214;-37
2022/11/04 06:29:40;;;;;;;;;;;12.80;60.80;;;;;;5024193;28;87146;-37
2022/11/04 06:32:10;;;;;;;;;;;12.80;60.80;;;;;;5024188;28;88801;-37
2022/11/04 06:34:35;;;;;;;;;;;12.80;60.80;;;;;;5023059;28;89560;-37
2022/11/04 06:37:01;;;;;;;;;;;12.80;60.80;;;;;;5024287;28;86995;-37
2022/11/04 06:39:26;;;;;;;;;;;12.80;60.90;;;;;;5023199;28;88093;-37
2022/11/04 06:41:52;;;;;;;;;;;12.70;60.90;;;;;;5023352;28;87652;-36
2022/11/04 06:44:17;;;;;;;;;;;12.70;60.90;;;;;;5027122;28;88034;-37
2022/11/04 06:46:43;;;;;;;;;;;12.80;60.90;;;;;;5023492;28;88715;-37
2022/11/04 06:49:10;;;;;;;;;;;12.80;60.90;;;;;;5023826;28;87494;-37
2022/11/04 06:51:36;;;;;;;;;;;12.70;60.80;;;;;;5023800;28;87571;-37
2022/11/04 06:54:01;;;;;;;;;;;12.70;60.90;;;;;;5023183;28;89265;-36
2022/11/04 06:56:27;;;;;;;;;;;12.70;60.90;;;;;;5024080;28;86732;-36
2022/11/04 06:58:53;;;;;;;;;;;12.70;60.90;;;;;;5023766;28;87005;-37
2022/11/04 07:01:19;;;;;;;;;;;12.70;60.90;;;;;;5023742;28;88045;-37
2022/11/04 07:03:49;;;;;;;;;;;12.70;60.90;;;;;;5026162;28;87991;-37
2022/11/04 07:06:15;;;;;;;;;;;12.70;60.90;;;;;;5023272;28;87999;-36
2022/11/04 07:08:40;;;;;;;;;;;12.70;60.90;;;;;;5023481;28;86911;-36
2022/11/04 07:11:06;;;;;;;;;;;12.70;60.90;;;;;;5023132;28;88677;-36
2022/11/04 07:13:31;;;;;;;;;;;12.70;60.90;;;;;;5023085;28;88165;-37
2022/11/04 07:15:57;;;;;;;;;;;12.70;61.00;;;;;;5023651;28;87053;-37
2022/11/04 07:18:22;;;;;;;;;;;12.70;61.00;;;;;;5023478;28;87286;-37
2022/11/04 07:20:48;;;;;;;;;;;12.70;61.10;;;;;;5023845;28;87413;-37
2022/11/04 07:23:14;;;;;;;;;;;12.70;61.10;;;;;;5023225;28;86922;-37
2022/11/04 07:25:39;;;;;;;;;;;12.70;61.00;;;;;;5025679;28;87131;-37
2022/11/04 07:28:05;;;;;;;;;;;12.70;61.10;;;;;;5022614;28;88109;-37
2022/11/04 07:30:30;;;;;;;;;;;12.70;61.10;;;;;;5023007;28;89696;-37
2022/11/04 07:32:57;;;;;;;;;;;12.70;61.10;;;;;;5022751;28;87948;-37
2022/11/04 07:35:22;;;;;;;;;;;12.70;61.10;;;;;;5022560;28;87162;-37
2022/11/04 07:37:48;;;;;;;;;;;12.70;61.10;;;;;;5023377;28;87364;-37
2022/11/04 07:40:13;;;;;;;;;;;12.70;61.10;;;;;;5022556;28;88088;-37
2022/11/04 07:42:39;;;;;;;;;;;12.70;61.10;;;;;;5022964;28;87172;-37
2022/11/04 07:45:05;;;;;;;;;;;12.70;61.20;;;;;;5022923;28;87256;-37
2022/11/04 07:47:31;;;;;;;;;;;12.70;61.20;;;;;;5025318;28;89949;-37
2022/11/04 07:49:57;;;;;;;;;;;12.70;61.20;;;;;;5022653;28;88977;-37
2022/11/04 07:52:23;;;;;;;;;;;12.70;61.20;;;;;;5021928;28;88730;-37
2022/11/04 07:54:48;;;;;;;;;;;12.70;61.30;;;;;;5022591;28;87217;-37
2022/11/04 07:57:14;;;;;;;;;;;12.70;61.20;;;;;;5022770;28;87415;-37
2022/11/04 07:59:39;;;;;;;;;;;12.70;61.30;;;;;;5022320;28;87203;-37
2022/11/04 08:02:05;;;;;;;;;;;12.70;61.30;;;;;;5022838;28;87157;-37
2022/11/04 08:04:31;;;;;;;;;;;12.70;61.30;;;;;;5022693;28;87470;-37
2022/11/04 08:06:56;;;;;;;;;;;12.70;61.40;;;;;;5022428;28;88194;-37
2022/11/04 08:09:22;;;;;;;;;;;12.70;61.40;;;;;;5026142;28;86383;-37
2022/11/04 08:11:47;;;;;;;;;;;12.70;61.40;;;;;;5022222;28;88599;-37
2022/11/04 08:14:13;;;;;;;;;;;12.70;61.40;;;;;;5022619;28;87136;-37
2022/11/04 08:16:39;;;;;;;;;;;12.70;61.50;;;;;;5021882;28;87960;-37
2022/11/04 08:19:04;;;;;;;;;;;12.70;61.50;;;;;;5021950;28;89199;-37
2022/11/04 08:21:31;;;;;;;;;;;12.70;61.50;;;;;;5022423;28;87111;-37
2022/11/04 08:23:57;;;;;;;;;;;12.70;61.60;;;;;;5022177;28;88836;-37
2022/11/04 08:26:22;;;;;;;;;;;12.70;61.60;;;;;;5021790;28;89325;-37
2022/11/04 08:28:48;;;;;;;;;;;12.70;61.60;;;;;;5022220;28;87377;-37
2022/11/04 08:31:17;;;;;;;;;;;12.70;61.60;;;;;;5024899;28;87374;-37
2022/11/04 08:33:43;;;;;;;;;;;12.70;61.60;;;;;;5022770;28;86400;-37
2022/11/04 08:36:11;;;;;;;;;;;12.70;61.60;;;;;;5021909;28;90551;-37
2022/11/04 08:38:36;;;;;;;;;;;12.70;61.60;;;;;;5021596;28;87964;-37
2022/11/04 08:41:03;;;;;;;;;;;12.70;61.70;;;;;;5021409;28;88038;-37
2022/11/04 08:43:29;;;;;;;;;;;12.70;61.70;;;;;;5022068;28;88359;-37
2022/11/04 08:45:55;;;;;;;;;;;12.80;61.70;;;;;;5022041;28;88054;-37
2022/11/04 08:48:21;;;;;;;;;;;12.70;61.70;;;;;;5022165;28;86958;-37
2022/11/04 08:50:50;;;;;;;;;;;12.70;61.70;;;;;;5022022;28;87881;-37
2022/11/04 08:53:15;;;;;;;;;;;12.70;61.70;;;;;;5024589;28;87557;-37
2022/11/04 08:55:41;;;;;;;;;;;12.80;61.80;;;;;;5021846;28;87317;-37
2022/11/04 08:58:07;;;;;;;;;;;12.70;61.80;;;;;;5023628;28;88709;-37
2022/11/04 09:00:33;;;;;;;;;;;12.80;61.80;;;;;;5025552;28;87168;-36
2022/11/04 09:02:58;;;;;;;;;;;12.80;61.80;;;;;;5025254;28;89060;-37
2022/11/04 09:05:24;;;;;;;;;;;12.80;61.80;;;;;;5024609;28;89223;-37
2022/11/04 09:07:49;;;;;;;;;;;12.80;61.80;;;;;;5025457;28;87133;-37
2022/11/04 09:10:16;;;;;;;;;;;12.80;61.80;;;;;;5025060;28;87437;-37
2022/11/04 09:12:42;;;;;;;;;;;12.80;62.40;;;;;;5027914;28;87346;-37
2022/11/04 09:15:07;;;;;;;;;;;12.80;61.70;;;;;;5025372;28;87961;-37
2022/11/04 09:17:33;;;;;;;;;;;12.80;61.70;;;;;;5024936;28;87996;-37
2022/11/04 09:19:58;;;;;;;;;;;12.80;61.70;;;;;;5025388;28;87102;-37
2022/11/04 09:22:24;;;;;;;;;;;12.80;61.70;;;;;;5025762;28;86505;-37
2022/11/04 09:24:49;;;;;;;;;;;12.90;61.70;;;;;;5024762;28;88206;-37
2022/11/04 09:27:15;;;;;;;;;;;12.90;61.70;;;;;;5024795;28;87065;-37
2022/11/04 09:29:40;;;;;;;;;;;12.80;61.60;;;;;;5024183;28;89258;-37
2022/11/04 09:32:06;;;;;;;;;;;12.90;61.70;;;;;;5024889;28;88103;-37
2022/11/04 09:34:32;;;;;;;;;;;12.90;61.70;;;;;;5027684;28;87091;-37
2022/11/04 09:36:58;;;;;;;;;;;12.90;61.60;;;;;;5024653;28;87250;-37
2022/11/04 09:39:23;;;;;;;;;;;12.90;61.60;;;;;;5024821;28;87322;-37
2022/11/04 09:42:01;;;;;;;;;;;12.90;61.60;;;;;;5024891;28;87290;-37
2022/11/04 09:44:38;;;;;;;;;;;12.90;61.60;;;;;;5024823;28;87463;-37
2022/11/04 09:47:07;;;;;;;;;;;12.90;61.60;;;;;;5025284;28;86383;-37
2022/11/04 09:49:34;;;;;;;;;;;13.00;61.60;;;;;;5024695;28;87105;-37
2022/11/04 09:52:01;;;;;;;;;;;13.00;61.60;;;;;;5023935;28;89245;-37
2022/11/04 09:54:35;;;;;;;;;;;13.00;61.60;;;;;;5024176;28;88099;-37
2022/11/04 09:57:02;;;;;;;;;;;13.00;61.70;;;;;;5027328;28;88569;-37
2022/11/04 09:59:30;;;;;;;;;;;13.00;61.70;;;;;;5024856;28;87192;-37
2022/11/04 10:02:15;;;;;;;;;;;13.00;61.80;;;;;;5024768;28;87202;-37
2022/11/04 10:04:49;;;;;;;;;;;13.00;61.80;;;;;;5024106;28;88100;-37
2022/11/04 10:07:17;;;;;;;;;;;13.00;61.80;;;;;;5024605;28;87183;-37
2022/11/04 10:09:52;;;;;;;;;;;13.00;62.40;;;;;;5024169;28;87565;-37
2022/11/04 10:12:20;;;;;;;;;;;13.00;61.70;;;;;;5024937;28;87306;-37
2022/11/04 10:14:53;;;;;;;;;;;13.00;61.80;;;;;;5024294;28;87537;-37
2022/11/04 10:17:21;;;;;;;;;;;13.10;62.00;;;;;;5024304;28;88793;-37
2022/11/04 10:19:47;;;;;;;;;;;13.00;62.00;;;;;;5026313;28;89028;-37
2022/11/04 10:22:22;;;;;;;;;;;13.10;62.10;;;;;;5024365;28;87391;-37
2022/11/04 10:25:06;;;;;;;;;;;13.10;62.00;;;;;;5023770;28;89175;-37
2022/11/04 10:27:36;;;;;;;;;;;13.10;62.00;;;;;;5024299;28;87522;-37
2022/11/04 10:30:18;;;;;;;;;;;13.20;62.00;;;;;;5024466;28;87362;-37
2022/11/04 10:32:46;;;;;;;;;;;13.10;62.10;;;;;;5023569;28;89399;-37
2022/11/04 10:35:12;;;;;;;;;;;13.20;62.10;;;;;;5023633;28;87574;-37
2022/11/04 10:37:37;;;;;;;;;;;13.20;62.20;;;;;;5024791;28;87436;-37
2022/11/04 10:40:22;;;;;;;;;;;13.20;62.00;;;;;;5023344;28;88198;-37
2022/11/04 10:42:48;;;;;;;;;;;13.20;62.10;;;;;;5026885;28;87569;-37
2022/11/04 10:45:14;;;;;;;;;;;13.30;62.10;;;;;;5022783;28;90220;-37
2022/11/04 10:48:18;;;;;;;;;;;13.20;62.00;;;;;;5023776;28;87148;-37
2022/11/04 10:50:53;;;;;;;;;;;13.30;62.10;;;;;;4981104;28;87366;-37
2022/11/04 10:53:21;;;;;;;;;;;13.30;62.40;;;;;;4981210;28;87970;-37
2022/11/04 10:55:53;;;;;;;;;;;13.30;62.00;;;;;;5004064;28;87144;-37
2022/11/04 10:58:21;;;;;;;;;;;13.30;62.10;;;;;;5023851;28;87404;-37
2022/11/04 11:00:47;;;;;;;;;;;13.30;62.30;;;;;;5023255;28;88099;-37
2022/11/04 11:03:21;;;;;;;;;;;13.30;62.60;;;;;;5023935;28;86423;-37
2022/11/04 11:05:48;;;;;;;;;;;13.30;62.50;;;;;;5026364;28;86939;-37
2022/11/04 11:08:26;;;;;;;;;;;13.40;62.50;;;;;;5023514;28;87112;-37
2022/11/04 11:10:51;;;;;;;;;;;13.40;62.50;;;;;;5023025;28;87868;-37
2022/11/04 11:13:25;;;;;;;;;;;13.40;62.60;;;;;;5023029;28;87761;-37
2022/11/04 11:16:03;;;;;;;;;;;13.40;62.50;;;;;;5023181;28;87098;-37
2022/11/04 11:18:28;;;;;;;;;;;13.40;62.60;;;;;;5023212;28;88191;-36
2022/11/04 11:21:14;;;;;;;;;;;13.50;62.20;;;;;;5022114;28;88126;-37
2022/11/04 11:23:41;;;;;;;;;;;13.50;62.20;;;;;;5023274;28;86935;-37
2022/11/04 11:26:27;;;;;;;;;;;13.50;62.20;;;;;;5025174;28;88874;-37
2022/11/04 11:29:00;;;;;;;;;;;13.50;62.20;;;;;;5023052;28;86398;-37
2022/11/04 11:31:34;;;;;;;;;;;13.50;62.20;;;;;;5023168;28;88185;-37
2022/11/04 11:34:01;;;;;;;;;;;13.50;62.40;;;;;;5022849;28;87200;-37
2022/11/04 11:36:31;;;;;;;;;;;13.50;62.30;;;;;;5022022;28;87948;-37
2022/11/04 11:39:04;;;;;;;;;;;13.50;62.40;;;;;;5022960;28;88452;-37
2022/11/04 11:41:32;;;;;;;;;;;13.60;62.60;;;;;;5022721;28;87886;-37
2022/11/04 11:44:00;;;;;;;;;;;13.60;62.30;;;;;;5022719;28;87051;-37
2022/11/04 11:46:27;;;;;;;;;;;13.60;62.40;;;;;;5022981;28;87401;-37
2022/11/04 11:48:59;;;;;;;;;;;13.60;62.20;;;;;;5025388;28;88167;-37
2022/11/04 11:51:38;;;;;;;;;;;13.70;62.30;;;;;;5022747;28;88850;-37
2022/11/04 11:54:21;;;;;;;;;;;13.70;62.30;;;;;;5022855;28;87761;-37
2022/11/04 11:56:51;;;;;;;;;;;13.70;62.30;;;;;;5022548;28;87142;-37
2022/11/04 11:59:37;;;;;;;;;;;13.70;62.20;;;;;;5022742;28;88695;-37
2022/11/04 12:02:21;;;;;;;;;;;13.70;62.10;;;;;;5021916;28;88886;-37
2022/11/04 12:04:46;;;;;;;;;;;13.70;62.50;;;;;;5022845;28;87226;-37
2022/11/04 12:07:21;;;;;;;;;;;13.70;62.60;;;;;;5022688;28;87357;-37
2022/11/04 12:09:47;;;;;;;;;;;13.70;62.40;;;;;;5022385;28;88220;-37
2022/11/04 12:12:12;;;;;;;;;;;13.70;62.70;;;;;;5025368;28;87095;-37
2022/11/04 12:14:43;;;;;;;;;;;13.80;62.70;;;;;;5022391;28;87682;-37
2022/11/04 12:17:11;;;;;;;;;;;13.80;62.60;;;;;;5022561;28;86978;-37
2022/11/04 12:19:43;;;;;;;;;;;13.80;62.70;;;;;;5023153;28;87558;-37
2022/11/04 12:22:20;;;;;;;;;;;13.80;62.60;;;;;;5022274;28;87732;-37
2022/11/04 12:25:07;;;;;;;;;;;13.80;62.70;;;;;;5022163;28;87160;-37
2022/11/04 12:27:52;;;;;;;;;;;13.80;62.50;;;;;;5021366;28;88754;-37
2022/11/04 12:30:23;;;;;;;;;;;13.90;62.60;;;;;;5000142;28;87224;-37
2022/11/04 12:33:08;;;;;;;;;;;13.90;62.40;;;;;;5024779;28;87148;-37
2022/11/04 12:35:36;;;;;;;;;;;14.00;62.30;;;;;;5028006;28;87802;-37
2022/11/04 12:38:10;;;;;;;;;;;14.00;62.60;;;;;;5026045;28;87155;-37
2022/11/04 12:40:40;;;;;;;;;;;14.00;62.30;;;;;;5025779;28;87557;-36
2022/11/04 12:43:08;;;;;;;;;;;14.00;62.50;;;;;;5025430;28;88001;-37
2022/11/04 12:45:39;;;;;;;;;;;14.00;62.50;;;;;;5026061;28;86513;-36
2022/11/04 12:48:08;;;;;;;;;;;14.00;62.70;;;;;;5025510;28;87067;-36
2022/11/04 12:50:50;;;;;;;;;;;14.00;62.60;;;;;;5023935;28;89955;-36
2022/11/04 12:53:16;;;;;;;;;;;14.00;62.40;;;;;;5025243;28;87976;-36
2022/11/04 12:55:42;;;;;;;;;;;14.00;62.20;;;;;;5025647;28;88284;-36
2022/11/04 12:58:21;;;;;;;;;;;14.00;62.30;;;;;;5028086;28;88247;-36
2022/11/04 13:00:49;;;;;;;;;;;14.10;62.50;;;;;;5025764;28;87283;-36
2022/11/04 13:03:20;;;;;;;;;;;14.00;62.40;;;;;;5025082;28;88174;-36
2022/11/04 13:05:55;;;;;;;;;;;14.00;62.40;;;;;;5025394;28;87088;-36
2022/11/04 13:08:23;;;;;;;;;;;14.10;62.20;;;;;;5025318;28;87021;-36
2022/11/04 13:10:54;;;;;;;;;;;14.10;61.80;;;;;;5025568;28;87457;-36
2022/11/04 13:13:23;;;;;;;;;;;14.10;62.10;;;;;;5025386;28;87002;-36
2022/11/04 13:15:54;;;;;;;;;;;14.10;62.40;;;;;;5025286;28;87205;-36
2022/11/04 13:18:22;;;;;;;;;;;14.10;62.30;;;;;;5024198;28;88968;-36
2022/11/04 13:20:55;;;;;;;;;;;14.20;62.40;;;;;;5028147;28;87143;-36
2022/11/04 13:23:23;;;;;;;;;;;14.20;62.40;;;;;;5024693;28;89806;-36
2022/11/04 13:25:50;;;;;;;;;;;14.20;62.20;;;;;;5025112;28;87072;-36
2022/11/04 13:28:18;;;;;;;;;;;14.20;62.10;;;;;;5025191;28;87632;-36
2022/11/04 13:31:02;;;;;;;;;;;14.20;62.20;;;;;;5024617;28;87988;-36
2022/11/04 13:33:46;;;;;;;;;;;14.30;61.80;;;;;;5024572;28;87137;-36
2022/11/04 13:36:47;;;;;;;;;;;14.30;61.60;;;;;;5025364;28;87312;-36
2022/11/04 13:39:13;;;;;;;;;;;14.30;62.00;;;;;;4982092;28;87954;-37
2022/11/04 13:41:57;;;;;;;;;;;14.30;62.10;;;;;;5018612;28;87338;-36
2022/11/04 13:44:24;;;;;;;;;;;14.30;62.10;;;;;;5023150;28;88951;-37
2022/11/04 13:46:51;;;;;;;;;;;14.30;61.80;;;;;;5025015;28;87110;-36
2022/11/04 13:49:19;;;;;;;;;;;14.30;61.80;;;;;;5024574;28;88815;-36
2022/11/04 13:51:46;;;;;;;;;;;14.40;61.70;;;;;;5024570;28;87256;-36
2022/11/04 13:54:18;;;;;;;;;;;14.40;61.90;;;;;;5024625;28;87135;-36
2022/11/04 13:56:43;;;;;;;;;;;14.40;61.90;;;;;;5024932;28;87614;-36
2022/11/04 13:59:18;;;;;;;;;;;14.40;62.00;;;;;;5024344;28;88159;-37
2022/11/04 14:01:44;;;;;;;;;;;14.40;62.00;;;;;;5025184;28;86359;-36
2022/11/04 14:04:12;;;;;;;;;;;14.40;62.10;;;;;;5027180;28;86867;-36
2022/11/04 14:06:46;;;;;;;;;;;14.40;61.90;;;;;;5024524;28;87223;-36
2022/11/04 14:09:30;;;;;;;;;;;14.50;62.00;;;;;;5023534;28;88711;-36
2022/11/04 14:12:15;;;;;;;;;;;14.50;62.10;;;;;;5024096;28;87816;-36
2022/11/04 14:15:06;;;;;;;;;;;14.50;62.00;;;;;;5024186;28;87006;-36
2022/11/04 14:17:31;;;;;;;;;;;14.50;61.90;;;;;;5024170;28;87428;-36
2022/11/04 14:20:00;;;;;;;;;;;14.50;62.10;;;;;;5024051;28;88040;-36
2022/11/04 14:22:29;;;;;;;;;;;14.50;62.00;;;;;;5024409;28;87056;-36
2022/11/04 14:24:56;;;;;;;;;;;14.50;61.90;;;;;;5024049;28;88697;-36
2022/11/04 14:27:34;;;;;;;;;;;14.50;62.10;;;;;;5027202;28;87342;-36
2022/11/04 14:30:00;;;;;;;;;;;14.60;62.10;;;;;;5024284;28;87325;-36
2022/11/04 14:32:29;;;;;;;;;;;14.60;61.90;;;;;;5023970;28;87970;-36
2022/11/04 14:35:03;;;;;;;;;;;14.60;62.10;;;;;;5022972;28;88033;-36
2022/11/04 14:37:35;;;;;;;;;;;14.60;62.10;;;;;;5023942;28;89937;-36
2022/11/04 14:40:05;;;;;;;;;;;14.60;62.00;;;;;;5023464;28;87934;-36
2022/11/04 14:42:50;;;;;;;;;;;14.60;62.10;;;;;;5023803;28;87001;-36
2022/11/04 14:45:28;;;;;;;;;;;14.60;62.00;;;;;;5024029;28;88446;-36
2022/11/04 14:47:55;;;;;;;;;;;14.60;62.10;;;;;;5023502;28;88030;-36
2022/11/04 14:50:25;;;;;;;;;;;14.60;62.00;;;;;;5026706;28;87087;-36
2022/11/04 14:52:56;;;;;;;;;;;14.60;62.00;;;;;;5023894;28;86699;-36
2022/11/04 14:55:24;;;;;;;;;;;14.60;62.10;;;;;;5021961;28;87006;-36